Time;durP1;ratioP1;P1;durP2;ratioP2;P2;SDS_P1;SDS_P2;PMS_P1;PMS_P2;Temp;Humidity;BMP_temperature;BMP_pressure;BME280_temperature;BME280_humidity;BME280_pressure;Samples;Min_cycle;Max_cycle;Signal;HPM_P1;HPM_P2
2022/05/14 00:01:27;;;;;;;4.37;0.90;;;;;;;10.06;86.78;99158.91;4989494;28;20209;-49
2022/05/14 00:03:54;;;;;;;4.47;1.00;;;;;;;10.03;86.03;99160.00;4990674;28;20193;-50
2022/05/14 00:06:23;;;;;;;4.93;1.10;;;;;;;9.97;86.22;99163.97;5000382;28;20203;-49
2022/05/14 00:08:50;;;;;;;4.83;1.57;;;;;;;10.02;85.48;99158.34;4997868;28;20203;-49
2022/05/14 00:14:04;;;;;;;3.50;1.00;;;;;;;10.07;85.33;99165.78;4970734;28;20237;-50
2022/05/14 00:16:34;;;;;;;6.50;1.10;;;;;;;10.09;84.94;99166.44;4994457;28;20196;-50
2022/05/14 00:19:02;;;;;;;7.17;1.40;;;;;;;10.01;84.23;99160.13;4989789;28;20189;-52
2022/05/14 00:21:29;;;;;;;6.40;1.20;;;;;;;9.98;84.75;99160.41;4988914;28;20259;-49
2022/05/14 00:23:58;;;;;;;3.77;0.80;;;;;;;9.98;84.46;99157.78;4987350;28;20192;-49
2022/05/14 00:26:25;;;;;;;2.50;0.97;;;;;;;9.94;85.53;99163.41;4985541;28;20555;-49
2022/05/14 00:28:52;;;;;;;3.97;1.10;;;;;;;9.90;85.57;99155.03;4995322;28;20728;-50
2022/05/14 00:31:19;;;;;;;4.57;1.00;;;;;;;9.88;86.98;99149.94;4995202;28;20233;-50
2022/05/14 00:34:06;;;;;;;1.93;1.10;;;;;;;9.83;87.26;99146.91;4990684;28;20256;-50
2022/05/14 00:36:33;;;;;;;5.43;1.20;;;;;;;9.76;86.42;99158.81;4973308;28;20709;-50
2022/05/14 00:39:00;;;;;;;3.90;1.00;;;;;;;9.74;86.37;99153.75;4973424;28;20866;-50
2022/05/14 00:41:28;;;;;;;2.47;1.03;;;;;;;9.78;86.33;99154.28;4970417;28;21856;-50
2022/05/14 00:44:13;;;;;;;9.87;1.57;;;;;;;9.71;86.95;99158.38;4990438;28;20203;-51
2022/05/14 00:46:46;;;;;;;3.43;0.90;;;;;;;9.69;86.69;99155.09;4987467;28;20202;-50
2022/05/14 00:49:19;;;;;;;4.37;1.20;;;;;;;9.68;87.56;99150.81;4987362;28;20199;-50
2022/05/14 00:51:46;;;;;;;7.43;1.60;;;;;;;9.58;87.23;99150.81;4977713;28;20312;-52
2022/05/14 00:54:18;;;;;;;5.00;1.23;;;;;;;9.59;88.30;99150.66;4977704;28;20243;-51
2022/05/14 00:56:49;;;;;;;4.63;1.23;;;;;;;9.59;89.28;99152.47;4972082;28;20205;-51
2022/05/14 00:59:18;;;;;;;5.30;1.20;;;;;;;9.53;88.56;99160.78;4972915;28;20452;-50
2022/05/14 01:01:46;;;;;;;4.87;1.30;;;;;;;9.56;89.35;99150.09;4968213;28;20715;-50
2022/05/14 01:04:16;;;;;;;3.57;1.10;;;;;;;9.52;87.59;99160.00;4970818;28;20200;-53
2022/05/14 01:06:50;;;;;;;8.03;1.40;;;;;;;9.50;87.14;99156.69;4978067;28;20199;-51
2022/05/14 01:09:17;;;;;;;8.10;1.00;;;;;;;9.48;87.19;99158.59;4972983;28;20212;-50
2022/05/14 01:11:44;;;;;;;4.20;1.33;;;;;;;9.51;88.45;99160.09;4969484;28;20218;-50
2022/05/14 01:14:12;;;;;;;8.43;1.50;;;;;;;9.44;88.91;99149.38;4972837;28;20333;-50
2022/05/14 01:16:40;;;;;;;5.40;1.33;;;;;;;9.41;87.91;99157.47;4976913;28;20195;-50
2022/05/14 01:19:27;;;;;;;3.07;1.10;;;;;;;9.43;89.08;99152.94;4996103;28;20668;-50
2022/05/14 01:22:14;;;;;;;4.17;1.00;;;;;;;9.41;89.15;99152.25;4976826;28;20211;-52
2022/05/14 01:27:47;;;;;;;6.10;1.30;;;;;;;9.31;88.97;99149.59;4985203;28;20571;-52
2022/05/14 01:30:15;;;;;;;1.63;1.10;;;;;;;9.29;88.90;99149.72;4969372;28;20655;-52
2022/05/14 01:32:42;;;;;;;8.47;1.70;;;;;;;9.28;89.31;99147.25;4974231;28;20733;-51
2022/05/14 01:35:09;;;;;;;8.10;1.30;;;;;;;9.24;89.41;99154.50;4983887;28;20202;-51
2022/05/14 01:37:37;;;;;;;6.27;1.83;;;;;;;9.27;90.56;99153.41;4994154;28;20279;-51
2022/05/14 01:40:06;;;;;;;3.17;1.43;;;;;;;9.22;88.83;99152.97;4970727;28;20577;-51
2022/05/14 01:42:32;;;;;;;4.57;1.07;;;;;;;9.22;89.58;99143.38;4967670;28;20197;-53
2022/05/14 01:45:01;;;;;;;2.80;1.10;;;;;;;9.23;89.31;99146.81;4971666;28;20194;-50
2022/05/14 01:47:27;;;;;;;6.37;1.43;;;;;;;9.36;89.08;99137.00;4970714;28;20192;-50
2022/05/14 01:49:55;;;;;;;1.63;0.97;;;;;;;9.38;88.38;99137.69;4998797;28;20222;-52
2022/05/14 01:52:22;;;;;;;2.63;1.10;;;;;;;9.42;88.09;99133.06;4972914;28;20198;-51
2022/05/14 01:54:48;;;;;;;3.83;1.20;;;;;;;9.50;87.89;99129.78;4972101;28;20319;-52
2022/05/14 01:57:15;;;;;;;3.43;1.13;;;;;;;9.52;87.17;99133.94;4980071;28;20207;-50
2022/05/14 02:00:04;;;;;;;8.97;1.30;;;;;;;9.59;85.88;99127.19;4990637;28;20242;-50
2022/05/14 02:02:41;;;;;;;5.37;1.10;;;;;;;9.60;86.15;99126.25;4988393;28;20210;-51
2022/05/14 02:05:13;;;;;;;6.13;1.40;;;;;;;9.67;85.19;99130.94;4967172;28;20562;-50
2022/05/14 02:07:41;;;;;;;5.83;1.00;;;;;;;9.70;85.09;99133.28;4977121;28;20205;-50
2022/05/14 02:10:09;;;;;;;4.53;1.10;;;;;;;9.76;85.25;99140.56;4969499;28;20990;-50
2022/05/14 02:12:37;;;;;;;6.43;1.40;;;;;;;9.74;86.00;99138.09;4978439;28;20215;-50
2022/05/14 02:15:06;;;;;;;4.30;1.27;;;;;;;9.63;86.18;99139.97;4979376;28;20602;-53
2022/05/14 02:17:33;;;;;;;3.43;1.30;;;;;;;9.60;85.77;99134.06;4983128;28;20205;-49
2022/05/14 02:20:01;;;;;;;3.33;1.30;;;;;;;9.58;86.58;99140.38;4977522;28;20301;-49
2022/05/14 02:22:29;;;;;;;6.23;1.10;;;;;;;9.48;86.84;99140.34;4979425;28;20209;-50
2022/05/14 02:24:56;;;;;;;7.30;1.40;;;;;;;9.42;87.20;99139.09;4969235;28;20221;-50
2022/05/14 02:27:23;;;;;;;2.60;1.17;;;;;;;9.30;87.40;99146.16;4980214;28;20289;-51
2022/05/14 02:29:53;;;;;;;2.37;1.00;;;;;;;9.29;87.97;99148.88;4980405;28;20245;-53
2022/05/14 02:32:24;;;;;;;4.00;1.43;;;;;;;9.23;88.29;99147.63;4978494;28;20206;-52
2022/05/14 02:34:52;;;;;;;4.83;1.10;;;;;;;9.20;88.51;99140.09;4981850;28;20213;-51
2022/05/14 02:37:22;;;;;;;4.70;1.73;;;;;;;9.12;88.42;99145.91;4986530;28;20294;-50
2022/05/14 02:39:50;;;;;;;4.90;1.30;;;;;;;9.01;89.63;99141.63;4972187;28;20225;-51
2022/05/14 02:42:18;;;;;;;3.57;1.40;;;;;;;9.00;89.39;99137.38;4972495;28;20194;-52
2022/05/14 02:44:45;;;;;;;5.33;1.20;;;;;;;9.00;90.08;99141.75;4975194;28;20569;-53
2022/05/14 02:47:12;;;;;;;2.57;1.37;;;;;;;9.03;89.67;99143.28;4975440;28;20214;-49
2022/05/14 02:49:41;;;;;;;6.47;1.37;;;;;;;9.00;89.34;99147.78;4976371;28;20280;-50
2022/05/14 02:52:09;;;;;;;5.60;1.00;;;;;;;9.01;89.31;99138.19;4984773;28;20560;-53
2022/05/14 02:54:37;;;;;;;2.33;1.27;;;;;;;8.96;90.29;99146.38;4989335;28;20214;-50
2022/05/14 02:57:05;;;;;;;8.40;1.40;;;;;;;8.93;89.97;99136.22;4983484;28;20198;-51
2022/05/14 02:59:32;;;;;;;4.33;1.43;;;;;;;8.88;90.59;99137.56;4976132;28;20212;-51
2022/05/14 03:01:59;;;;;;;2.47;1.00;;;;;;;8.84;90.63;99135.22;4982621;28;20676;-50
2022/05/14 03:04:29;;;;;;;2.13;1.30;;;;;;;8.75;90.03;99129.94;4987000;28;20219;-50
2022/05/14 03:07:00;;;;;;;3.57;1.47;;;;;;;8.71;91.23;99130.19;4979301;28;20201;-51
2022/05/14 03:09:27;;;;;;;4.77;1.07;;;;;;;8.69;90.53;99129.50;4974416;28;20701;-50
2022/05/14 03:11:54;;;;;;;4.33;1.20;;;;;;;8.67;91.25;99122.78;4998482;28;20288;-50
2022/05/14 03:14:22;;;;;;;7.53;1.10;;;;;;;8.67;90.81;99126.19;4976879;28;20626;-51
2022/05/14 03:16:49;;;;;;;6.40;1.20;;;;;;;8.72;90.61;99125.81;4977279;28;20197;-50
2022/05/14 03:19:16;;;;;;;4.53;1.03;;;;;;;8.76;90.71;99131.59;4973335;28;20191;-50
2022/05/14 03:21:43;;;;;;;3.53;1.40;;;;;;;8.73;90.21;99129.25;4990084;28;20228;-50
2022/05/14 03:24:12;;;;;;;9.60;1.00;;;;;;;8.65;89.92;99125.47;4977332;28;20192;-50
2022/05/14 03:26:39;;;;;;;1.93;1.20;;;;;;;8.67;91.76;99122.78;4990998;28;20201;-50
2022/05/14 03:29:07;;;;;;;3.33;0.90;;;;;;;8.65;90.64;99115.06;4989872;28;20207;-50
2022/05/14 03:31:35;;;;;;;4.60;1.10;;;;;;;8.67;91.12;99118.38;4978434;28;20631;-50
2022/05/14 03:34:03;;;;;;;6.37;1.33;;;;;;;8.77;90.15;99123.66;4995271;28;20724;-52
2022/05/14 03:36:30;;;;;;;4.37;1.13;;;;;;;8.69;90.64;99118.25;4978434;28;20211;-50
2022/05/14 03:38:58;;;;;;;3.53;1.00;;;;;;;8.69;90.28;99134.69;4984778;28;20557;-52
2022/05/14 03:41:28;;;;;;;3.53;1.10;;;;;;;8.69;90.18;99126.88;4979855;28;20271;-50
2022/05/14 03:44:13;;;;;;;3.20;1.20;;;;;;;8.60;90.35;99124.22;4988863;28;20211;-50
2022/05/14 03:46:42;;;;;;;5.73;1.07;;;;;;;8.64;91.86;99131.63;4982475;28;20205;-50
2022/05/14 03:49:10;;;;;;;7.57;1.20;;;;;;;8.65;91.51;99122.06;4977542;28;20232;-50
2022/05/14 03:51:36;;;;;;;4.00;1.00;;;;;;;8.67;91.53;99114.97;4976409;28;20230;-51
2022/05/14 03:54:05;;;;;;;2.50;1.17;;;;;;;8.67;91.07;99122.78;4979474;28;20747;-50
2022/05/14 03:56:39;;;;;;;4.80;1.47;;;;;;;8.62;91.77;99125.75;4995032;28;20197;-50
2022/05/14 03:59:08;;;;;;;4.23;0.90;;;;;;;8.58;91.84;99132.13;4992045;28;20197;-49
2022/05/14 04:01:36;;;;;;;2.50;1.03;;;;;;;8.64;93.54;99125.63;4990727;28;20220;-50
2022/05/14 04:04:03;;;;;;;6.17;1.23;;;;;;;8.57;93.02;99125.28;4988134;28;21281;-50
2022/05/14 04:06:30;;;;;;;3.37;1.00;;;;;;;8.59;92.73;99126.00;4975678;28;20213;-52
2022/05/14 04:08:59;;;;;;;3.13;0.93;;;;;;;8.59;93.31;99130.38;4976312;28;20200;-50
2022/05/14 04:11:27;;;;;;;4.20;1.27;;;;;;;8.65;93.72;99135.91;4998485;28;20208;-50
2022/05/14 04:13:57;;;;;;;6.83;1.00;;;;;;;8.63;93.25;99132.59;4973466;28;20621;-50
2022/05/14 04:16:24;;;;;;;4.80;1.07;;;;;;;8.63;92.61;99129.19;4976031;28;20585;-53
2022/05/14 04:18:51;;;;;;;2.73;1.23;;;;;;;8.71;92.75;99129.38;4993025;28;20380;-52
2022/05/14 04:21:19;;;;;;;4.30;0.90;;;;;;;8.80;92.59;99127.78;4976014;28;20225;-51
2022/05/14 04:23:46;;;;;;;2.60;0.90;;;;;;;8.85;92.23;99131.66;4979376;28;20879;-51
2022/05/14 04:26:13;;;;;;;3.23;1.00;;;;;;;8.94;91.63;99134.47;4980893;28;20203;-51
2022/05/14 04:28:40;;;;;;;4.57;1.40;;;;;;;8.96;91.96;99129.94;4982363;28;20294;-51
2022/05/14 04:31:08;;;;;;;3.37;1.40;;;;;;;8.98;91.49;99130.66;4984217;28;20667;-53
2022/05/14 04:33:54;;;;;;;4.00;1.10;;;;;;;9.00;92.18;99134.75;4994090;28;20213;-53
2022/05/14 04:36:21;;;;;;;4.73;1.03;;;;;;;9.01;92.50;99146.84;4979732;28;20652;-50
2022/05/14 04:38:49;;;;;;;9.03;1.20;;;;;;;8.99;91.89;99133.13;4977287;28;20208;-53
2022/05/14 04:41:17;;;;;;;3.23;1.33;;;;;;;8.98;92.84;99138.47;4972834;28;20227;-50
2022/05/14 04:43:44;;;;;;;2.70;1.03;;;;;;;8.99;93.60;99132.31;4967526;28;20231;-51
2022/05/14 04:46:13;;;;;;;6.80;1.40;;;;;;;8.97;94.35;99144.63;4976952;28;20413;-51
2022/05/14 04:48:41;;;;;;;2.47;1.07;;;;;;;8.96;93.32;99140.38;4969464;28;20210;-51
2022/05/14 04:51:08;;;;;;;5.30;1.13;;;;;;;8.96;94.10;99138.56;4979730;28;20586;-51
2022/05/14 04:53:35;;;;;;;3.37;1.13;;;;;;;8.98;93.98;99141.88;4977617;28;20639;-51
2022/05/14 04:56:02;;;;;;;7.37;1.77;;;;;;;9.01;93.89;99146.84;4963788;28;20211;-51
2022/05/14 04:58:29;;;;;;;5.63;1.10;;;;;;;9.05;93.47;99152.59;4968133;28;20301;-50
2022/05/14 05:00:56;;;;;;;7.20;1.43;;;;;;;9.08;92.76;99151.53;4975710;28;20230;-50
2022/05/14 05:03:25;;;;;;;3.73;1.10;;;;;;;9.09;92.64;99145.38;4970602;28;20213;-50
2022/05/14 05:05:58;;;;;;;2.70;1.17;;;;;;;9.15;92.00;99147.47;4976976;28;20206;-53
2022/05/14 05:08:28;;;;;;;9.63;1.20;;;;;;;9.19;92.93;99153.22;4970845;28;20665;-51
2022/05/14 05:10:56;;;;;;;3.37;1.30;;;;;;;9.18;92.70;99151.56;4978643;28;20222;-52
2022/05/14 05:13:25;;;;;;;5.03;1.07;;;;;;;9.24;91.59;99151.06;4986194;28;20191;-51
2022/05/14 05:15:52;;;;;;;5.10;1.20;;;;;;;9.26;92.25;99149.16;4990773;28;20256;-51
2022/05/14 05:18:20;;;;;;;3.43;1.23;;;;;;;9.27;92.10;99153.41;4981911;28;20194;-50
2022/05/14 05:20:49;;;;;;;5.30;1.00;;;;;;;9.34;92.45;99151.94;4991757;28;20235;-52
2022/05/14 05:23:19;;;;;;;4.67;1.20;;;;;;;9.42;91.99;99148.69;4978284;28;20206;-52
2022/05/14 05:25:46;;;;;;;1.20;1.00;;;;;;;9.49;91.76;99155.03;4991135;28;20200;-51
2022/05/14 05:28:13;;;;;;;4.33;1.10;;;;;;;9.56;92.89;99150.91;4997384;28;20205;-54
2022/05/14 05:30:41;;;;;;;5.20;1.20;;;;;;;9.63;92.89;99145.19;4989093;28;20243;-51
2022/05/14 05:33:11;;;;;;;3.57;1.30;;;;;;;9.64;92.94;99149.44;4988141;28;20286;-51
2022/05/14 05:35:38;;;;;;;7.63;1.23;;;;;;;9.65;92.60;99151.09;4991404;28;20348;-51
2022/05/14 05:38:07;;;;;;;2.23;0.90;;;;;;;9.73;93.20;99146.03;4984911;28;20212;-51
2022/05/14 05:40:34;;;;;;;3.03;1.30;;;;;;;9.80;94.46;99155.00;4997773;28;20672;-51
2022/05/14 05:43:01;;;;;;;4.93;1.37;;;;;;;9.88;94.44;99149.94;4971052;28;20657;-51
2022/05/14 05:45:29;;;;;;;3.67;1.10;;;;;;;9.95;94.39;99157.22;4971518;28;20200;-51
2022/05/14 05:47:57;;;;;;;3.57;1.03;;;;;;;9.95;93.02;99155.44;4991283;28;20199;-51
2022/05/14 05:50:26;;;;;;;4.23;1.00;;;;;;;10.04;93.01;99161.63;4992746;28;20212;-51
2022/05/14 05:53:13;;;;;;;4.83;1.00;;;;;;;10.15;91.53;99161.53;4995452;28;20284;-51
2022/05/14 05:58:26;;;;;;;3.43;1.00;;;;;;;10.43;91.51;99160.91;4995701;28;20197;-51
2022/05/14 06:00:52;;;;;;;5.67;1.00;;;;;;;10.58;89.99;99163.94;4997173;28;20228;-51
2022/05/14 06:03:21;;;;;;;2.57;1.10;;;;;;;10.77;89.35;99163.91;4998919;28;20181;-51
2022/05/14 06:05:48;;;;;;;2.77;1.13;;;;;;;10.97;88.42;99160.47;4995726;28;20193;-52
2022/05/14 06:08:19;;;;;;;3.97;1.33;;;;;;;11.16;85.76;99165.63;4994422;28;20767;-51
2022/05/14 06:10:45;;;;;;;4.37;1.00;;;;;;;11.33;85.34;99168.47;4987799;28;20227;-51
2022/05/14 06:13:14;;;;;;;4.90;0.97;;;;;;;11.50;84.17;99170.34;4993980;28;20204;-51
2022/05/14 06:15:42;;;;;;;3.80;1.17;;;;;;;11.67;83.60;99179.22;5003796;28;20242;-52
2022/05/14 06:18:09;;;;;;;7.37;1.17;;;;;;;11.84;83.35;99174.19;4994249;28;20255;-51
2022/05/14 06:20:37;;;;;;;4.33;1.20;;;;;;;12.07;83.23;99177.28;4990944;28;20222;-51
2022/05/14 06:23:03;;;;;;;5.30;0.87;;;;;;;12.32;81.52;99176.69;4993915;28;20207;-53
2022/05/14 06:25:31;;;;;;;2.00;0.97;;;;;;;12.53;80.45;99179.84;4993183;28;20842;-51
2022/05/14 06:27:58;;;;;;;2.73;0.90;;;;;;;12.75;78.83;99185.59;4965977;28;20567;-52
2022/05/14 06:30:26;;;;;;;5.17;1.00;;;;;;;12.90;78.19;99185.88;4986982;28;20327;-52
2022/05/14 06:32:53;;;;;;;4.73;1.13;;;;;;;13.05;78.70;99196.63;5000715;28;20277;-54
2022/05/14 06:35:20;;;;;;;3.33;1.10;;;;;;;13.23;78.99;99195.78;4996532;28;20289;-52
2022/05/14 06:37:48;;;;;;;3.93;1.00;;;;;;;13.42;78.48;99198.22;4984663;28;20198;-51
2022/05/14 06:40:15;;;;;;;3.43;1.10;;;;;;;13.58;76.76;99197.47;4995372;28;20225;-53
2022/05/14 06:42:43;;;;;;;3.57;0.87;;;;;;;13.77;73.84;99202.66;4987553;28;20834;-51
2022/05/14 06:45:11;;;;;;;4.60;1.00;;;;;;;13.92;73.87;99197.63;5002514;28;20215;-51
2022/05/14 06:47:38;;;;;;;3.57;1.00;;;;;;;14.10;73.87;99198.34;4991089;28;20293;-51
2022/05/14 06:50:07;;;;;;;5.30;0.90;;;;;;;14.24;73.30;99191.66;4991811;28;20213;-51
2022/05/14 06:52:35;;;;;;;4.83;1.40;;;;;;;14.39;73.04;99196.28;4984902;28;20211;-53
2022/05/14 06:55:02;;;;;;;5.50;1.03;;;;;;;14.50;70.80;99200.38;4971591;28;20221;-51
2022/05/14 06:57:32;;;;;;;3.33;0.90;;;;;;;14.63;72.06;99207.81;4999224;28;20195;-52
2022/05/14 07:00:03;;;;;;;2.80;0.97;;;;;;;14.70;72.71;99208.84;4992437;28;20271;-52
2022/05/14 07:02:31;;;;;;;2.03;1.37;;;;;;;14.83;74.56;99213.59;4974762;28;20197;-53
2022/05/14 07:07:51;;;;;;;3.73;0.80;;;;;;;15.11;70.05;99210.63;4944233;28;20295;-50
2022/05/14 07:10:17;;;;;;;2.93;0.80;;;;;;;15.14;70.85;99210.31;5003363;28;20316;-49
2022/05/14 07:12:45;;;;;;;3.37;0.87;;;;;;;15.11;72.77;99211.44;4999258;28;20883;-51
2022/05/14 07:15:13;;;;;;;8.13;1.30;;;;;;;15.24;69.45;99210.94;4996787;28;20215;-52
2022/05/14 07:17:41;;;;;;;5.43;1.00;;;;;;;15.34;67.76;99211.59;4991117;28;20201;-53
2022/05/14 07:20:09;;;;;;;4.80;1.10;;;;;;;15.49;67.54;99214.34;5002782;28;20207;-52
2022/05/14 07:22:36;;;;;;;4.13;1.10;;;;;;;15.64;69.13;99211.03;4992124;28;20198;-51
2022/05/14 07:25:03;;;;;;;3.73;1.30;;;;;;;15.70;68.81;99206.88;4996385;28;20193;-54
2022/05/14 07:27:30;;;;;;;2.80;1.30;;;;;;;15.75;66.49;99213.28;5001152;28;20204;-51
2022/05/14 07:29:57;;;;;;;3.70;1.10;;;;;;;15.78;68.59;99212.94;4998166;28;20213;-52
2022/05/14 07:32:25;;;;;;;2.90;0.90;;;;;;;15.85;64.12;99214.91;4993331;28;20191;-52
2022/05/14 07:34:52;;;;;;;4.47;0.90;;;;;;;16.00;63.51;99210.56;5001814;28;20219;-55
2022/05/14 07:37:22;;;;;;;5.60;1.13;;;;;;;16.02;65.45;99211.22;4998585;28;20215;-52
2022/05/14 07:39:52;;;;;;;3.47;0.97;;;;;;;16.16;58.90;99214.13;4977463;28;20590;-51
2022/05/14 07:42:25;;;;;;;3.23;1.43;;;;;;;16.20;56.87;99208.34;4996156;28;20190;-53
2022/05/14 07:44:55;;;;;;;5.70;1.30;;;;;;;16.28;60.92;99201.41;4995844;28;20652;-54
2022/05/14 07:47:23;;;;;;;3.60;1.07;;;;;;;16.41;58.68;99206.91;4997871;28;20279;-51
2022/05/14 07:49:52;;;;;;;3.33;1.20;;;;;;;16.53;57.18;99202.84;4996231;28;20217;-52
2022/05/14 07:52:20;;;;;;;4.00;1.00;;;;;;;16.30;56.28;99207.31;4992911;28;20193;-50
2022/05/14 07:55:08;;;;;;;5.90;1.20;;;;;;;16.60;58.39;99210.06;4996006;28;20217;-49
2022/05/14 07:57:35;;;;;;;6.27;2.20;;;;;;;16.68;59.27;99208.19;5005845;28;20573;-49
2022/05/14 08:00:05;;;;;;;5.30;1.70;;;;;;;16.86;61.68;99204.44;5001629;28;20425;-50
2022/05/14 08:02:42;;;;;;;7.07;1.20;;;;;;;17.03;58.10;99205.16;4996411;28;20208;-50
2022/05/14 08:05:11;;;;;;;3.90;1.10;;;;;;;17.05;53.20;99210.22;4992870;28;20192;-51
2022/05/14 08:07:39;;;;;;;5.40;1.30;;;;;;;17.09;54.79;99204.44;5004721;28;20270;-51
2022/05/14 08:10:08;;;;;;;4.70;1.23;;;;;;;17.09;52.90;99209.72;4997138;28;20634;-53
2022/05/14 08:12:38;;;;;;;4.00;1.10;;;;;;;17.13;53.60;99204.06;4997734;28;20194;-51
2022/05/14 08:15:07;;;;;;;6.13;1.20;;;;;;;17.07;52.23;99202.97;4980039;28;20713;-51
2022/05/14 08:17:33;;;;;;;4.30;1.43;;;;;;;17.20;52.91;99205.00;5000255;28;20859;-54
2022/05/14 08:20:00;;;;;;;3.33;1.07;;;;;;;17.19;53.15;99208.63;4993586;28;20629;-52
2022/05/14 08:25:12;;;;;;;6.40;1.30;;;;;;;17.40;50.94;99219.31;4996409;28;20187;-52
2022/05/14 08:27:45;;;;;;;3.37;1.07;;;;;;;17.39;50.31;99212.41;4993834;28;20186;-53
2022/05/14 08:30:13;;;;;;;5.87;1.13;;;;;;;17.39;49.93;99214.19;4996454;28;20222;-51
2022/05/14 08:32:40;;;;;;;5.30;1.50;;;;;;;17.46;50.37;99219.59;4995745;28;20202;-52
2022/05/14 08:35:09;;;;;;;4.57;1.40;;;;;;;17.54;50.05;99222.94;4998706;28;20250;-51
2022/05/14 08:37:38;;;;;;;2.17;1.20;;;;;;;17.49;50.49;99225.31;4996179;28;20214;-52
2022/05/14 08:40:07;;;;;;;5.23;1.27;;;;;;;17.52;48.00;99219.69;4997858;28;20302;-51
2022/05/14 08:42:37;;;;;;;3.53;1.10;;;;;;;17.55;47.78;99218.47;5002917;28;20607;-53
2022/05/14 08:45:06;;;;;;;3.10;1.10;;;;;;;17.65;47.91;99208.47;5004569;28;20187;-51
2022/05/14 08:47:39;;;;;;;5.17;1.10;;;;;;;17.67;47.22;99209.09;4999511;28;20658;-53
2022/05/14 08:50:09;;;;;;;4.40;2.10;;;;;;;17.76;49.13;99209.84;4991529;28;20245;-52
2022/05/14 08:52:39;;;;;;;4.47;1.40;;;;;;;17.81;49.78;99209.28;4999267;28;20241;-51
2022/05/14 08:55:19;;;;;;;3.23;1.20;;;;;;;17.86;49.92;99204.28;4997798;28;20194;-52
2022/05/14 08:57:53;;;;;;;3.77;1.60;;;;;;;17.98;51.18;99208.09;4996138;28;20194;-51
2022/05/14 09:00:22;;;;;;;3.67;1.40;;;;;;;18.14;50.37;99201.78;4997000;28;20230;-51
2022/05/14 09:02:51;;;;;;;6.60;1.20;;;;;;;18.29;51.42;99200.94;4995479;28;20193;-52
2022/05/14 09:05:21;;;;;;;5.27;1.70;;;;;;;18.40;50.43;99211.00;4992694;28;20192;-51
2022/05/14 09:07:51;;;;;;;5.77;1.70;;;;;;;18.42;49.82;99203.72;4992376;28;20194;-51
2022/05/14 09:10:24;;;;;;;19.07;5.77;;;;;;;18.46;49.91;99201.53;4985370;28;20219;-52
2022/05/14 09:12:57;;;;;;;5.53;1.47;;;;;;;18.47;47.77;99194.41;4988130;28;20203;-52
2022/05/14 09:15:27;;;;;;;5.13;1.30;;;;;;;18.42;48.01;99198.44;4994151;28;20703;-52
2022/05/14 09:18:05;;;;;;;7.23;1.53;;;;;;;18.51;46.08;99190.38;4997879;28;20189;-53
2022/05/14 09:20:44;;;;;;;4.33;1.17;;;;;;;18.43;46.50;99197.41;4973782;28;20600;-51
2022/05/14 09:23:23;;;;;;;5.40;1.90;;;;;;;18.50;47.33;99186.09;4998005;28;20206;-51
2022/05/14 09:25:51;;;;;;;3.67;1.30;;;;;;;18.56;47.55;99182.69;4994963;28;20190;-51
2022/05/14 09:28:30;;;;;;;3.60;1.70;;;;;;;18.72;46.65;99197.47;4999351;28;20187;-51
2022/05/14 09:31:00;;;;;;;3.97;1.33;;;;;;;18.61;44.87;99192.69;4994470;28;20208;-51
2022/05/14 09:33:37;;;;;;;3.20;1.00;;;;;;;18.64;44.72;99200.25;4998754;28;20184;-51
2022/05/14 09:36:05;;;;;;;6.40;4.20;;;;;;;18.79;47.91;99195.72;4992536;28;21018;-53
2022/05/14 09:38:33;;;;;;;6.73;1.10;;;;;;;18.85;45.70;99202.09;4994787;28;20206;-51
2022/05/14 09:41:11;;;;;;;4.77;1.17;;;;;;;18.90;45.12;99197.03;4990241;28;20630;-54
2022/05/14 09:43:39;;;;;;;3.43;0.83;;;;;;;18.88;44.65;99191.94;4988899;28;20236;-54
2022/05/14 09:46:11;;;;;;;3.47;1.00;;;;;;;18.91;47.05;99193.38;4996049;28;20209;-52
2022/05/14 09:48:47;;;;;;;4.97;1.43;;;;;;;19.02;47.36;99198.19;4991277;28;20189;-51
2022/05/14 09:51:28;;;;;;;5.07;1.20;;;;;;;19.11;45.31;99184.78;4990681;28;20265;-51
2022/05/14 09:54:07;;;;;;;4.87;1.40;;;;;;;19.16;46.85;99192.97;4997312;28;20187;-51
2022/05/14 09:56:46;;;;;;;3.70;1.47;;;;;;;19.25;45.12;99185.72;5000249;28;20234;-51
2022/05/14 09:59:28;;;;;;;5.00;1.20;;;;;;;19.17;44.63;99186.66;4994735;28;20196;-53
2022/05/14 10:02:00;;;;;;;2.93;1.37;;;;;;;19.30;46.32;99185.94;5006697;28;20568;-51
2022/05/14 10:04:44;;;;;;;3.03;1.00;;;;;;;19.46;45.82;99185.66;4994915;28;20190;-52
2022/05/14 10:07:17;;;;;;;4.67;1.10;;;;;;;19.56;44.15;99189.78;4994017;28;20189;-51
2022/05/14 10:09:59;;;;;;;5.43;1.20;;;;;;;19.47;45.09;99176.69;4993152;28;20223;-51
2022/05/14 10:12:32;;;;;;;3.30;1.10;;;;;;;19.62;44.19;99173.06;4996001;28;20203;-55
2022/05/14 10:15:09;;;;;;;2.13;1.20;;;;;;;19.71;43.24;99176.38;4997797;28;20192;-52
2022/05/14 10:17:46;;;;;;;5.57;1.20;;;;;;;19.72;42.59;99175.38;4988147;28;20214;-51
2022/05/14 10:20:40;;;;;;;5.27;1.40;;;;;;;19.75;43.39;99172.34;4985347;28;20230;-51
2022/05/14 10:26:47;;;;;;;4.97;1.50;;;;;;;19.53;41.73;99163.69;4990405;28;20363;-54
2022/05/14 10:29:27;;;;;;;4.47;1.17;;;;;;;19.58;42.85;99167.38;4974048;28;20252;-53
2022/05/14 10:31:58;;;;;;;6.70;1.30;;;;;;;19.56;43.56;99171.25;4993676;28;20194;-50
2022/05/14 10:34:38;;;;;;;3.30;1.00;;;;;;;19.57;42.90;99160.44;4996621;28;20191;-51
2022/05/14 10:37:14;;;;;;;4.30;1.10;;;;;;;19.65;44.24;99163.94;5010548;28;20224;-51
2022/05/14 10:39:47;;;;;;;7.60;1.87;;;;;;;19.50;44.16;99167.53;4993702;28;20204;-51
2022/05/14 10:42:24;;;;;;;6.37;1.33;;;;;;;19.78;44.13;99169.28;4992714;28;20215;-53
2022/05/14 10:44:54;;;;;;;5.07;1.60;;;;;;;19.86;45.04;99165.63;5007211;28;21523;-53
2022/05/14 10:47:24;;;;;;;5.17;1.30;;;;;;;19.99;45.31;99167.56;5001668;28;20197;-52
2022/05/14 10:49:58;;;;;;;4.40;1.40;;;;;;;20.11;44.45;99157.19;5003025;28;20209;-52
2022/05/14 10:52:25;;;;;;;2.63;1.10;;;;;;;20.28;42.63;99162.94;4997257;28;20193;-52
2022/05/14 10:54:52;;;;;;;6.63;1.60;;;;;;;20.38;41.23;99158.06;4978194;28;20601;-51
2022/05/14 10:57:31;;;;;;;5.20;1.10;;;;;;;20.29;40.10;99164.56;4981300;28;20229;-51
2022/05/14 11:00:16;;;;;;;5.00;1.20;;;;;;;20.47;42.13;99156.84;4973415;28;20713;-51
2022/05/14 11:02:54;;;;;;;5.60;1.60;;;;;;;20.44;42.07;99153.78;4986059;28;20207;-51
2022/05/14 11:05:33;;;;;;;3.60;1.70;;;;;;;20.55;42.86;99157.66;5001513;28;20204;-53
2022/05/14 11:08:13;;;;;;;6.40;1.30;;;;;;;20.56;42.23;99157.47;5004036;28;20199;-54
2022/05/14 11:10:40;;;;;;;3.60;1.37;;;;;;;20.49;43.72;99159.31;4990553;28;20230;-52
2022/05/14 11:13:27;;;;;;;4.53;1.60;;;;;;;20.50;44.00;99153.00;4998342;28;20201;-51
2022/05/14 11:16:00;;;;;;;5.03;1.53;;;;;;;20.64;42.70;99157.28;4997766;28;20703;-50
2022/05/14 11:18:28;;;;;;;2.60;1.40;;;;;;;20.64;45.71;99146.69;4997916;28;20281;-54
2022/05/14 11:20:58;;;;;;;5.73;1.80;;;;;;;20.61;43.63;99151.56;5001427;28;20554;-53
2022/05/14 11:23:25;;;;;;;4.13;1.67;;;;;;;20.76;43.75;99146.03;4984052;28;20828;-51
2022/05/14 11:26:08;;;;;;;4.50;1.63;;;;;;;20.91;44.36;99146.66;4994423;28;20200;-51
2022/05/14 11:28:37;;;;;;;3.80;2.00;;;;;;;20.97;41.86;99145.03;4988727;28;20300;-52
2022/05/14 11:31:16;;;;;;;4.93;1.50;;;;;;;20.86;43.65;99145.66;5000773;28;20301;-52
2022/05/14 11:33:45;;;;;;;6.97;1.63;;;;;;;20.91;42.07;99141.38;4993701;28;20207;-54
2022/05/14 11:36:28;;;;;;;3.43;1.43;;;;;;;20.96;42.00;99147.88;4984377;28;20294;-53
2022/05/14 11:39:23;;;;;;;4.80;1.73;;;;;;;20.96;42.29;99142.59;4989921;28;20200;-53
2022/05/14 11:41:52;;;;;;;3.50;1.47;;;;;;;20.97;42.59;99137.09;5002644;28;20555;-51
2022/05/14 11:44:36;;;;;;;3.73;1.23;;;;;;;20.91;42.76;99120.13;4977886;28;20212;-54
2022/05/14 11:47:18;;;;;;;5.37;1.70;;;;;;;21.18;42.77;99124.59;4996642;28;20668;-53
2022/05/14 11:49:47;;;;;;;2.97;1.27;;;;;;;21.30;41.70;99125.56;4997372;28;20217;-51
2022/05/14 11:52:21;;;;;;;4.00;1.53;;;;;;;21.33;42.56;99127.00;4978486;28;20205;-51
2022/05/14 11:54:54;;;;;;;5.07;1.67;;;;;;;21.34;42.49;99121.47;4990801;28;20211;-50
2022/05/14 11:57:29;;;;;;;5.73;1.30;;;;;;;21.32;42.55;99123.50;4991016;28;20265;-52
2022/05/14 12:00:03;;;;;;;6.13;1.50;;;;;;;21.43;41.72;99110.63;4989531;28;20295;-52
2022/05/14 12:02:48;;;;;;;3.67;1.17;;;;;;;21.72;44.08;99113.81;4995157;28;20687;-55
2022/05/14 12:05:19;;;;;;;5.17;1.73;;;;;;;21.64;41.45;99115.66;4983772;28;20231;-52
2022/05/14 12:08:21;;;;;;;3.93;1.37;;;;;;;21.72;40.67;99108.50;4995682;28;20309;-52
2022/05/14 12:10:54;;;;;;;7.67;1.50;;;;;;;21.79;41.44;99104.75;4985667;28;20222;-52